Startpagina
METAR-TAF:

METAR-TAF

Vliegvelden :

Mont-De-Marsan, Frankrijk

breedte: 43-55N, lengte: 000-30W, hoogte: 62 m

Actueel weer

Dit bericht is 32 minuten geleden gemaakt, om 02:00 UTC
Wind 4 kt uit het westzuidwesten, variërend tussen het zuidzuidwesten en het westen
Temperatuur 19°C
Vochtigheid 94%
Druk 1017 hPa
Zicht 10 km of meer
Geheel bewolkt op 700 ft

METAR: LFBM 260200Z AUTO 24004KT 210V270 9999 OVC007 19/18 Q1017 BECMG BKN010

Tijdstip: 04:32 (02:32 UTC)

Verwachting

Dit bericht is 6 uur en het 32 minuten geleden gemaakt, om 20:00 UTC
Verwachting geldig van 25 om 21 UTC tot 26 om 21 UTC
Wind 10 kt uit het westen
Zicht 10 km of meer
geen wolken onder 1500 m en geen cumulonimbus
Wijzigt naar
van 25 om 22 UTC tot 25 om 24 UTC
Gebroken wolken op 1000 ft

TAF: LFBM 252000Z 2521/2621 27010KT CAVOK BECMG 2522/2524 BKN010

Waarnemingen en weersverwachtingen van meer dan 4000 vliegvelden (METAR en TAF).

De beschikbare stations zijn de gele en rode punten op de kaart.

Ga met uw muis naar het station om de naam te zien.

Klik dan om waarnemingen en weersverwachtingen te zien.

kaart wijzigen: klik op de groene knoppen met een zwart kruis om in te zoomen, op de groene knop met een streepje om uit te zoomen of op de groene pijlen voor aangrenzende kaarten.


METAR-TAF: